sensor_id;sensor_type;location;lat;lon;timestamp;P1;durP1;ratioP1;P2;durP2;ratioP2
4694;SDS011;2361;49.540;8.390;2023-03-23T00:01:57;3.17;;;0.90;;
4694;SDS011;2361;49.540;8.390;2023-03-23T00:04:23;1.13;;;1.13;;
4694;SDS011;2361;49.540;8.390;2023-03-23T00:06:52;0.60;;;0.60;;
4694;SDS011;2361;49.540;8.390;2023-03-23T00:09:18;1.07;;;0.90;;
4694;SDS011;2361;49.540;8.390;2023-03-23T00:11:48;1.23;;;0.80;;
4694;SDS011;2361;49.540;8.390;2023-03-23T00:14:16;1.20;;;0.80;;
4694;SDS011;2361;49.540;8.390;2023-03-23T00:16:47;0.70;;;0.70;;
4694;SDS011;2361;49.540;8.390;2023-03-23T00:19:15;0.70;;;0.70;;
4694;SDS011;2361;49.540;8.390;2023-03-23T00:21:41;1.03;;;1.03;;
4694;SDS011;2361;49.540;8.390;2023-03-23T00:26:41;1.00;;;1.00;;
4694;SDS011;2361;49.540;8.390;2023-03-23T00:29:13;1.13;;;0.97;;
4694;SDS011;2361;49.540;8.390;2023-03-23T00:31:42;1.03;;;1.00;;
4694;SDS011;2361;49.540;8.390;2023-03-23T00:34:11;1.13;;;0.80;;
4694;SDS011;2361;49.540;8.390;2023-03-23T00:36:44;1.37;;;0.80;;
4694;SDS011;2361;49.540;8.390;2023-03-23T00:39:15;0.80;;;0.80;;
4694;SDS011;2361;49.540;8.390;2023-03-23T00:41:42;0.77;;;0.77;;
4694;SDS011;2361;49.540;8.390;2023-03-23T00:44:09;0.80;;;0.80;;
4694;SDS011;2361;49.540;8.390;2023-03-23T00:46:42;0.77;;;0.77;;
4694;SDS011;2361;49.540;8.390;2023-03-23T00:49:13;0.60;;;0.60;;
4694;SDS011;2361;49.540;8.390;2023-03-23T00:51:50;0.50;;;0.50;;
4694;SDS011;2361;49.540;8.390;2023-03-23T00:54:21;0.67;;;0.67;;
4694;SDS011;2361;49.540;8.390;2023-03-23T00:56:49;0.57;;;0.57;;
4694;SDS011;2361;49.540;8.390;2023-03-23T00:59:15;1.13;;;1.13;;
4694;SDS011;2361;49.540;8.390;2023-03-23T01:01:42;0.60;;;0.60;;
4694;SDS011;2361;49.540;8.390;2023-03-23T01:04:08;1.60;;;1.00;;
4694;SDS011;2361;49.540;8.390;2023-03-23T01:06:37;1.43;;;0.83;;
4694;SDS011;2361;49.540;8.390;2023-03-23T01:09:06;0.53;;;0.53;;
4694;SDS011;2361;49.540;8.390;2023-03-23T01:11:35;0.50;;;0.50;;
4694;SDS011;2361;49.540;8.390;2023-03-23T01:14:02;1.87;;;1.10;;
4694;SDS011;2361;49.540;8.390;2023-03-23T01:16:28;0.70;;;0.70;;
4694;SDS011;2361;49.540;8.390;2023-03-23T01:18:54;0.50;;;0.50;;
4694;SDS011;2361;49.540;8.390;2023-03-23T01:21:20;2.50;;;0.60;;
4694;SDS011;2361;49.540;8.390;2023-03-23T01:23:47;1.30;;;0.80;;
4694;SDS011;2361;49.540;8.390;2023-03-23T01:26:20;0.97;;;0.97;;
4694;SDS011;2361;49.540;8.390;2023-03-23T01:28:49;1.17;;;1.07;;
4694;SDS011;2361;49.540;8.390;2023-03-23T01:31:16;1.00;;;1.00;;
4694;SDS011;2361;49.540;8.390;2023-03-23T01:33:45;1.03;;;0.50;;
4694;SDS011;2361;49.540;8.390;2023-03-23T01:36:16;0.83;;;0.83;;
4694;SDS011;2361;49.540;8.390;2023-03-23T01:38:46;0.77;;;0.63;;
4694;SDS011;2361;49.540;8.390;2023-03-23T01:41:13;0.57;;;0.57;;
4694;SDS011;2361;49.540;8.390;2023-03-23T01:46:41;1.00;;;1.00;;
4694;SDS011;2361;49.540;8.390;2023-03-23T01:49:27;0.70;;;0.70;;
4694;SDS011;2361;49.540;8.390;2023-03-23T01:52:26;0.83;;;0.70;;
4694;SDS011;2361;49.540;8.390;2023-03-23T01:54:54;0.70;;;0.70;;
4694;SDS011;2361;49.540;8.390;2023-03-23T01:57:23;0.60;;;0.60;;
4694;SDS011;2361;49.540;8.390;2023-03-23T01:59:55;0.80;;;0.80;;
4694;SDS011;2361;49.540;8.390;2023-03-23T02:02:24;1.40;;;0.90;;
4694;SDS011;2361;49.540;8.390;2023-03-23T02:04:51;0.40;;;0.40;;
4694;SDS011;2361;49.540;8.390;2023-03-23T02:07:24;9.03;;;0.80;;
4694;SDS011;2361;49.540;8.390;2023-03-23T02:09:50;0.80;;;0.80;;
4694;SDS011;2361;49.540;8.390;2023-03-23T02:12:16;0.80;;;0.80;;
4694;SDS011;2361;49.540;8.390;2023-03-23T02:14:43;0.50;;;0.50;;
4694;SDS011;2361;49.540;8.390;2023-03-23T02:17:09;0.60;;;0.60;;
4694;SDS011;2361;49.540;8.390;2023-03-23T02:26:01;0.70;;;0.70;;
4694;SDS011;2361;49.540;8.390;2023-03-23T02:31:55;1.27;;;1.27;;
4694;SDS011;2361;49.540;8.390;2023-03-23T02:34:38;0.80;;;0.80;;
4694;SDS011;2361;49.540;8.390;2023-03-23T02:37:27;0.67;;;0.67;;
4694;SDS011;2361;49.540;8.390;2023-03-23T02:40:03;1.53;;;0.70;;
4694;SDS011;2361;49.540;8.390;2023-03-23T02:42:41;0.70;;;0.70;;
4694;SDS011;2361;49.540;8.390;2023-03-23T02:45:10;0.80;;;0.80;;
4694;SDS011;2361;49.540;8.390;2023-03-23T02:47:38;0.80;;;0.70;;
4694;SDS011;2361;49.540;8.390;2023-03-23T02:50:07;0.80;;;0.80;;
4694;SDS011;2361;49.540;8.390;2023-03-23T02:52:37;0.60;;;0.60;;
4694;SDS011;2361;49.540;8.390;2023-03-23T02:55:06;1.77;;;0.83;;
4694;SDS011;2361;49.540;8.390;2023-03-23T02:57:36;0.77;;;0.77;;
4694;SDS011;2361;49.540;8.390;2023-03-23T03:00:04;0.73;;;0.73;;
4694;SDS011;2361;49.540;8.390;2023-03-23T03:02:35;2.83;;;0.97;;
4694;SDS011;2361;49.540;8.390;2023-03-23T03:19:16;0.80;;;0.60;;
4694;SDS011;2361;49.540;8.390;2023-03-23T03:21:47;0.83;;;0.73;;
4694;SDS011;2361;49.540;8.390;2023-03-23T03:24:16;0.83;;;0.83;;
4694;SDS011;2361;49.540;8.390;2023-03-23T03:26:45;0.70;;;0.70;;
4694;SDS011;2361;49.540;8.390;2023-03-23T03:29:20;0.73;;;0.70;;
4694;SDS011;2361;49.540;8.390;2023-03-23T03:31:52;1.10;;;0.90;;
4694;SDS011;2361;49.540;8.390;2023-03-23T03:34:21;0.80;;;0.80;;
4694;SDS011;2361;49.540;8.390;2023-03-23T03:36:49;0.87;;;0.87;;
4694;SDS011;2361;49.540;8.390;2023-03-23T03:39:20;0.73;;;0.73;;
4694;SDS011;2361;49.540;8.390;2023-03-23T03:41:46;1.23;;;0.93;;
4694;SDS011;2361;49.540;8.390;2023-03-23T03:44:13;1.10;;;0.70;;
4694;SDS011;2361;49.540;8.390;2023-03-23T03:46:40;0.80;;;0.80;;
4694;SDS011;2361;49.540;8.390;2023-03-23T03:49:06;0.90;;;0.90;;
4694;SDS011;2361;49.540;8.390;2023-03-23T03:51:35;6.37;;;0.70;;
4694;SDS011;2361;49.540;8.390;2023-03-23T03:54:01;1.00;;;0.90;;
4694;SDS011;2361;49.540;8.390;2023-03-23T03:56:27;1.70;;;0.80;;
4694;SDS011;2361;49.540;8.390;2023-03-23T03:58:53;0.80;;;0.80;;
4694;SDS011;2361;49.540;8.390;2023-03-23T04:01:20;0.97;;;0.97;;
4694;SDS011;2361;49.540;8.390;2023-03-23T04:03:50;1.60;;;1.50;;
4694;SDS011;2361;49.540;8.390;2023-03-23T04:06:16;7.13;;;1.60;;
4694;SDS011;2361;49.540;8.390;2023-03-23T04:08:43;1.33;;;1.23;;
4694;SDS011;2361;49.540;8.390;2023-03-23T04:11:10;1.40;;;1.30;;
4694;SDS011;2361;49.540;8.390;2023-03-23T04:13:38;1.00;;;1.00;;
4694;SDS011;2361;49.540;8.390;2023-03-23T04:16:05;1.50;;;1.50;;
4694;SDS011;2361;49.540;8.390;2023-03-23T04:18:31;1.70;;;1.60;;
4694;SDS011;2361;49.540;8.390;2023-03-23T04:20:59;1.80;;;1.70;;
4694;SDS011;2361;49.540;8.390;2023-03-23T04:23:27;1.40;;;1.40;;
4694;SDS011;2361;49.540;8.390;2023-03-23T04:25:55;1.40;;;1.40;;
4694;SDS011;2361;49.540;8.390;2023-03-23T04:28:22;1.50;;;1.40;;
4694;SDS011;2361;49.540;8.390;2023-03-23T04:30:50;1.40;;;1.40;;
4694;SDS011;2361;49.540;8.390;2023-03-23T04:33:23;1.50;;;1.50;;
4694;SDS011;2361;49.540;8.390;2023-03-23T04:35:52;1.97;;;1.40;;
4694;SDS011;2361;49.540;8.390;2023-03-23T04:38:22;1.80;;;1.70;;
4694;SDS011;2361;49.540;8.390;2023-03-23T04:40:50;1.70;;;1.60;;
4694;SDS011;2361;49.540;8.390;2023-03-23T04:43:18;1.97;;;1.87;;
4694;SDS011;2361;49.540;8.390;2023-03-23T04:45:46;1.80;;;1.70;;
4694;SDS011;2361;49.540;8.390;2023-03-23T04:48:25;1.47;;;1.43;;
4694;SDS011;2361;49.540;8.390;2023-03-23T04:50:55;1.43;;;1.33;;
4694;SDS011;2361;49.540;8.390;2023-03-23T04:53:22;1.53;;;1.53;;
4694;SDS011;2361;49.540;8.390;2023-03-23T04:55:48;0.93;;;0.93;;
4694;SDS011;2361;49.540;8.390;2023-03-23T04:58:14;1.50;;;1.50;;
4694;SDS011;2361;49.540;8.390;2023-03-23T05:00:41;0.97;;;0.97;;
4694;SDS011;2361;49.540;8.390;2023-03-23T05:03:14;1.50;;;1.40;;
4694;SDS011;2361;49.540;8.390;2023-03-23T05:05:42;1.80;;;1.30;;
4694;SDS011;2361;49.540;8.390;2023-03-23T05:08:14;2.97;;;1.40;;
4694;SDS011;2361;49.540;8.390;2023-03-23T05:10:40;1.83;;;1.73;;
4694;SDS011;2361;49.540;8.390;2023-03-23T05:13:06;2.40;;;1.23;;
4694;SDS011;2361;49.540;8.390;2023-03-23T05:15:32;1.57;;;1.47;;
4694;SDS011;2361;49.540;8.390;2023-03-23T05:17:58;1.13;;;0.93;;
4694;SDS011;2361;49.540;8.390;2023-03-23T05:20:24;0.97;;;0.97;;
4694;SDS011;2361;49.540;8.390;2023-03-23T05:22:49;2.60;;;1.33;;
4694;SDS011;2361;49.540;8.390;2023-03-23T05:25:16;1.30;;;1.20;;
4694;SDS011;2361;49.540;8.390;2023-03-23T05:27:45;0.83;;;0.83;;
4694;SDS011;2361;49.540;8.390;2023-03-23T05:30:17;0.83;;;0.80;;
4694;SDS011;2361;49.540;8.390;2023-03-23T05:32:45;1.00;;;1.00;;
4694;SDS011;2361;49.540;8.390;2023-03-23T05:35:15;1.00;;;1.00;;
4694;SDS011;2361;49.540;8.390;2023-03-23T05:37:42;0.90;;;0.87;;
4694;SDS011;2361;49.540;8.390;2023-03-23T05:40:10;0.70;;;0.70;;
4694;SDS011;2361;49.540;8.390;2023-03-23T05:42:37;2.40;;;0.67;;
4694;SDS011;2361;49.540;8.390;2023-03-23T05:45:06;1.17;;;1.17;;
4694;SDS011;2361;49.540;8.390;2023-03-23T05:47:34;0.83;;;0.83;;
4694;SDS011;2361;49.540;8.390;2023-03-23T05:50:01;0.80;;;0.80;;
4694;SDS011;2361;49.540;8.390;2023-03-23T05:52:27;0.90;;;0.90;;
4694;SDS011;2361;49.540;8.390;2023-03-23T05:54:53;0.90;;;0.90;;
4694;SDS011;2361;49.540;8.390;2023-03-23T05:57:19;1.00;;;1.00;;
4694;SDS011;2361;49.540;8.390;2023-03-23T05:59:47;0.70;;;0.70;;
4694;SDS011;2361;49.540;8.390;2023-03-23T06:02:13;0.60;;;0.60;;
4694;SDS011;2361;49.540;8.390;2023-03-23T06:04:39;1.10;;;1.10;;
4694;SDS011;2361;49.540;8.390;2023-03-23T06:07:06;0.77;;;0.77;;
4694;SDS011;2361;49.540;8.390;2023-03-23T06:09:37;0.80;;;0.80;;
4694;SDS011;2361;49.540;8.390;2023-03-23T06:12:03;0.90;;;0.90;;
4694;SDS011;2361;49.540;8.390;2023-03-23T06:14:30;1.17;;;0.90;;
4694;SDS011;2361;49.540;8.390;2023-03-23T06:16:56;1.90;;;0.90;;
4694;SDS011;2361;49.540;8.390;2023-03-23T06:19:22;1.00;;;1.00;;
4694;SDS011;2361;49.540;8.390;2023-03-23T06:21:48;0.70;;;0.70;;
4694;SDS011;2361;49.540;8.390;2023-03-23T06:24:14;0.70;;;0.70;;
4694;SDS011;2361;49.540;8.390;2023-03-23T06:26:40;1.00;;;0.70;;
4694;SDS011;2361;49.540;8.390;2023-03-23T06:29:06;0.90;;;0.90;;
4694;SDS011;2361;49.540;8.390;2023-03-23T06:31:47;1.10;;;1.10;;
4694;SDS011;2361;49.540;8.390;2023-03-23T06:34:19;1.00;;;1.00;;
4694;SDS011;2361;49.540;8.390;2023-03-23T06:36:45;0.97;;;0.93;;
4694;SDS011;2361;49.540;8.390;2023-03-23T06:39:11;4.23;;;1.03;;
4694;SDS011;2361;49.540;8.390;2023-03-23T06:41:38;0.80;;;0.80;;
4694;SDS011;2361;49.540;8.390;2023-03-23T06:44:05;0.80;;;0.80;;
4694;SDS011;2361;49.540;8.390;2023-03-23T06:46:31;1.50;;;1.00;;
4694;SDS011;2361;49.540;8.390;2023-03-23T06:48:57;1.00;;;1.00;;
4694;SDS011;2361;49.540;8.390;2023-03-23T06:51:23;1.10;;;1.10;;
4694;SDS011;2361;49.540;8.390;2023-03-23T06:53:49;0.73;;;0.73;;
4694;SDS011;2361;49.540;8.390;2023-03-23T06:56:15;0.70;;;0.70;;
4694;SDS011;2361;49.540;8.390;2023-03-23T06:58:41;0.70;;;0.70;;
4694;SDS011;2361;49.540;8.390;2023-03-23T07:01:08;0.80;;;0.40;;
4694;SDS011;2361;49.540;8.390;2023-03-23T07:03:34;1.63;;;1.53;;
4694;SDS011;2361;49.540;8.390;2023-03-23T07:06:01;0.80;;;0.80;;
4694;SDS011;2361;49.540;8.390;2023-03-23T07:08:29;0.70;;;0.70;;
4694;SDS011;2361;49.540;8.390;2023-03-23T07:10:56;0.80;;;0.80;;
4694;SDS011;2361;49.540;8.390;2023-03-23T07:13:23;0.63;;;0.63;;
4694;SDS011;2361;49.540;8.390;2023-03-23T07:15:50;1.10;;;1.10;;
4694;SDS011;2361;49.540;8.390;2023-03-23T07:18:16;1.03;;;0.97;;
4694;SDS011;2361;49.540;8.390;2023-03-23T07:20:42;1.00;;;1.00;;
4694;SDS011;2361;49.540;8.390;2023-03-23T07:23:07;1.13;;;1.07;;
4694;SDS011;2361;49.540;8.390;2023-03-23T07:25:34;0.90;;;0.90;;
4694;SDS011;2361;49.540;8.390;2023-03-23T07:28:01;1.00;;;1.00;;
4694;SDS011;2361;49.540;8.390;2023-03-23T07:30:28;0.70;;;0.70;;
4694;SDS011;2361;49.540;8.390;2023-03-23T07:32:58;0.90;;;0.90;;
4694;SDS011;2361;49.540;8.390;2023-03-23T07:35:24;0.37;;;0.37;;
4694;SDS011;2361;49.540;8.390;2023-03-23T07:37:50;0.73;;;0.73;;
4694;SDS011;2361;49.540;8.390;2023-03-23T07:40:17;0.87;;;0.87;;
4694;SDS011;2361;49.540;8.390;2023-03-23T07:42:51;1.00;;;1.00;;
4694;SDS011;2361;49.540;8.390;2023-03-23T07:45:20;0.80;;;0.80;;
4694;SDS011;2361;49.540;8.390;2023-03-23T07:47:46;0.80;;;0.80;;
4694;SDS011;2361;49.540;8.390;2023-03-23T07:50:12;0.77;;;0.77;;
4694;SDS011;2361;49.540;8.390;2023-03-23T07:52:39;2.00;;;1.10;;
4694;SDS011;2361;49.540;8.390;2023-03-23T07:55:06;0.70;;;0.70;;
4694;SDS011;2361;49.540;8.390;2023-03-23T07:57:36;0.70;;;0.70;;
4694;SDS011;2361;49.540;8.390;2023-03-23T08:00:03;0.63;;;0.63;;
4694;SDS011;2361;49.540;8.390;2023-03-23T08:02:48;0.87;;;0.87;;
4694;SDS011;2361;49.540;8.390;2023-03-23T08:05:17;0.80;;;0.80;;
4694;SDS011;2361;49.540;8.390;2023-03-23T08:07:43;0.60;;;0.60;;
4694;SDS011;2361;49.540;8.390;2023-03-23T08:10:10;0.90;;;0.90;;
4694;SDS011;2361;49.540;8.390;2023-03-23T08:12:38;1.10;;;1.00;;
4694;SDS011;2361;49.540;8.390;2023-03-23T08:15:06;0.70;;;0.70;;
4694;SDS011;2361;49.540;8.390;2023-03-23T08:17:37;1.00;;;1.00;;
4694;SDS011;2361;49.540;8.390;2023-03-23T08:20:05;0.80;;;0.80;;
4694;SDS011;2361;49.540;8.390;2023-03-23T08:22:36;1.00;;;1.00;;
4694;SDS011;2361;49.540;8.390;2023-03-23T08:25:04;0.90;;;0.90;;
4694;SDS011;2361;49.540;8.390;2023-03-23T08:27:32;2.07;;;1.13;;
4694;SDS011;2361;49.540;8.390;2023-03-23T08:29:58;0.90;;;0.90;;
4694;SDS011;2361;49.540;8.390;2023-03-23T08:32:24;1.13;;;1.13;;
4694;SDS011;2361;49.540;8.390;2023-03-23T08:34:51;0.97;;;0.97;;
4694;SDS011;2361;49.540;8.390;2023-03-23T08:37:18;0.90;;;0.90;;
4694;SDS011;2361;49.540;8.390;2023-03-23T08:39:44;0.60;;;0.60;;
4694;SDS011;2361;49.540;8.390;2023-03-23T08:42:10;0.53;;;0.53;;
4694;SDS011;2361;49.540;8.390;2023-03-23T08:44:36;0.50;;;0.50;;
4694;SDS011;2361;49.540;8.390;2023-03-23T08:47:03;0.90;;;0.90;;
4694;SDS011;2361;49.540;8.390;2023-03-23T08:49:31;0.70;;;0.70;;
4694;SDS011;2361;49.540;8.390;2023-03-23T08:52:00;0.80;;;0.80;;
4694;SDS011;2361;49.540;8.390;2023-03-23T08:54:26;0.90;;;0.90;;
4694;SDS011;2361;49.540;8.390;2023-03-23T08:56:52;0.93;;;0.93;;
4694;SDS011;2361;49.540;8.390;2023-03-23T08:59:17;2.00;;;1.00;;
4694;SDS011;2361;49.540;8.390;2023-03-23T09:01:43;0.57;;;0.57;;
4694;SDS011;2361;49.540;8.390;2023-03-23T09:04:09;0.80;;;0.80;;
4694;SDS011;2361;49.540;8.390;2023-03-23T09:06:38;0.60;;;0.60;;
4694;SDS011;2361;49.540;8.390;2023-03-23T09:09:04;1.03;;;0.50;;
4694;SDS011;2361;49.540;8.390;2023-03-23T09:11:34;0.77;;;0.77;;
4694;SDS011;2361;49.540;8.390;2023-03-23T09:14:01;0.80;;;0.80;;
4694;SDS011;2361;49.540;8.390;2023-03-23T09:16:29;0.60;;;0.60;;
4694;SDS011;2361;49.540;8.390;2023-03-23T09:18:56;0.60;;;0.60;;
4694;SDS011;2361;49.540;8.390;2023-03-23T09:21:25;0.80;;;0.80;;
4694;SDS011;2361;49.540;8.390;2023-03-23T09:23:52;1.20;;;1.10;;
4694;SDS011;2361;49.540;8.390;2023-03-23T09:26:21;2.60;;;0.70;;
4694;SDS011;2361;49.540;8.390;2023-03-23T09:28:47;0.90;;;0.90;;
4694;SDS011;2361;49.540;8.390;2023-03-23T09:31:13;0.47;;;0.47;;
4694;SDS011;2361;49.540;8.390;2023-03-23T09:33:39;1.67;;;0.60;;
4694;SDS011;2361;49.540;8.390;2023-03-23T09:36:05;0.60;;;0.60;;
4694;SDS011;2361;49.540;8.390;2023-03-23T09:38:33;0.93;;;0.60;;
4694;SDS011;2361;49.540;8.390;2023-03-23T09:52:45;0.50;;;0.40;;
4694;SDS011;2361;49.540;8.390;2023-03-23T09:55:41;0.80;;;0.80;;
4694;SDS011;2361;49.540;8.390;2023-03-23T09:58:10;0.77;;;0.77;;
4694;SDS011;2361;49.540;8.390;2023-03-23T10:00:46;0.80;;;0.80;;
4694;SDS011;2361;49.540;8.390;2023-03-23T10:03:28;1.10;;;1.00;;
4694;SDS011;2361;49.540;8.390;2023-03-23T10:06:02;0.70;;;0.70;;
4694;SDS011;2361;49.540;8.390;2023-03-23T10:08:30;0.93;;;0.90;;
4694;SDS011;2361;49.540;8.390;2023-03-23T10:11:05;0.80;;;0.80;;
4694;SDS011;2361;49.540;8.390;2023-03-23T10:17:14;0.90;;;0.90;;
4694;SDS011;2361;49.540;8.390;2023-03-23T10:19:57;1.17;;;1.07;;
4694;SDS011;2361;49.540;8.390;2023-03-23T10:26:28;0.70;;;0.70;;
4694;SDS011;2361;49.540;8.390;2023-03-23T10:28:45;0.50;;;0.43;;
4694;SDS011;2361;49.540;8.390;2023-03-23T10:31:26;0.50;;;0.50;;
4694;SDS011;2361;49.540;8.390;2023-03-23T10:34:02;0.70;;;0.70;;
4694;SDS011;2361;49.540;8.390;2023-03-23T10:37:14;1.17;;;0.93;;
4694;SDS011;2361;49.540;8.390;2023-03-23T10:39:52;0.90;;;0.90;;
4694;SDS011;2361;49.540;8.390;2023-03-23T10:42:30;0.87;;;0.87;;
4694;SDS011;2361;49.540;8.390;2023-03-23T10:45:10;0.90;;;0.90;;
4694;SDS011;2361;49.540;8.390;2023-03-23T10:47:48;0.77;;;0.77;;
4694;SDS011;2361;49.540;8.390;2023-03-23T10:50:23;1.00;;;0.90;;
4694;SDS011;2361;49.540;8.390;2023-03-23T10:52:56;0.80;;;0.80;;
4694;SDS011;2361;49.540;8.390;2023-03-23T10:55:25;0.60;;;0.60;;
4694;SDS011;2361;49.540;8.390;2023-03-23T10:58:07;0.80;;;0.80;;
4694;SDS011;2361;49.540;8.390;2023-03-23T11:00:41;0.80;;;0.80;;
4694;SDS011;2361;49.540;8.390;2023-03-23T11:05:47;0.70;;;0.70;;
4694;SDS011;2361;49.540;8.390;2023-03-23T11:08:29;0.90;;;0.90;;
4694;SDS011;2361;49.540;8.390;2023-03-23T11:13:56;0.80;;;0.80;;
4694;SDS011;2361;49.540;8.390;2023-03-23T11:16:41;0.70;;;0.70;;
4694;SDS011;2361;49.540;8.390;2023-03-23T11:19:34;0.90;;;0.90;;
4694;SDS011;2361;49.540;8.390;2023-03-23T11:24:43;1.03;;;1.03;;
4694;SDS011;2361;49.540;8.390;2023-03-23T11:27:13;7.90;;;0.97;;
4694;SDS011;2361;49.540;8.390;2023-03-23T11:32:24;3.50;;;1.43;;
4694;SDS011;2361;49.540;8.390;2023-03-23T11:34:56;1.00;;;1.00;;
4694;SDS011;2361;49.540;8.390;2023-03-23T11:37:29;1.27;;;1.17;;
4694;SDS011;2361;49.540;8.390;2023-03-23T11:42:42;0.70;;;0.70;;
4694;SDS011;2361;49.540;8.390;2023-03-23T11:51:37;0.93;;;0.93;;
4694;SDS011;2361;49.540;8.390;2023-03-23T11:57:10;0.70;;;0.70;;
4694;SDS011;2361;49.540;8.390;2023-03-23T11:59:38;0.93;;;0.93;;
4694;SDS011;2361;49.540;8.390;2023-03-23T12:14:12;0.60;;;0.60;;
4694;SDS011;2361;49.540;8.390;2023-03-23T12:17:12;0.97;;;0.97;;
4694;SDS011;2361;49.540;8.390;2023-03-23T12:25:42;0.80;;;0.80;;
4694;SDS011;2361;49.540;8.390;2023-03-23T12:36:21;0.80;;;0.80;;
4694;SDS011;2361;49.540;8.390;2023-03-23T12:45:21;0.70;;;0.70;;
4694;SDS011;2361;49.540;8.390;2023-03-23T12:48:10;0.60;;;0.60;;
4694;SDS011;2361;49.540;8.390;2023-03-23T12:53:45;0.80;;;0.80;;
4694;SDS011;2361;49.540;8.390;2023-03-23T12:56:29;0.60;;;0.60;;
4694;SDS011;2361;49.540;8.390;2023-03-23T13:07:53;1.47;;;0.60;;
4694;SDS011;2361;49.540;8.390;2023-03-23T13:10:40;0.60;;;0.60;;
4694;SDS011;2361;49.540;8.390;2023-03-23T13:13:19;1.07;;;0.70;;
4694;SDS011;2361;49.540;8.390;2023-03-23T13:23:49;0.80;;;0.80;;
4694;SDS011;2361;49.540;8.390;2023-03-23T13:26:22;0.70;;;0.70;;
4694;SDS011;2361;49.540;8.390;2023-03-23T13:28:51;0.70;;;0.70;;
4694;SDS011;2361;49.540;8.390;2023-03-23T13:31:52;0.67;;;0.67;;
4694;SDS011;2361;49.540;8.390;2023-03-23T13:34:32;0.60;;;0.60;;
4694;SDS011;2361;49.540;8.390;2023-03-23T13:37:04;0.60;;;0.60;;
4694;SDS011;2361;49.540;8.390;2023-03-23T13:39:56;0.60;;;0.60;;
4694;SDS011;2361;49.540;8.390;2023-03-23T13:42:54;0.73;;;0.73;;
4694;SDS011;2361;49.540;8.390;2023-03-23T13:45:23;0.80;;;0.80;;
4694;SDS011;2361;49.540;8.390;2023-03-23T13:56:16;0.80;;;0.80;;
4694;SDS011;2361;49.540;8.390;2023-03-23T13:59:05;0.60;;;0.60;;
4694;SDS011;2361;49.540;8.390;2023-03-23T14:01:53;0.90;;;0.90;;
4694;SDS011;2361;49.540;8.390;2023-03-23T14:04:22;5.50;;;1.00;;
4694;SDS011;2361;49.540;8.390;2023-03-23T14:07:07;0.80;;;0.80;;
4694;SDS011;2361;49.540;8.390;2023-03-23T14:09:40;0.87;;;0.80;;
4694;SDS011;2361;49.540;8.390;2023-03-23T14:12:16;0.80;;;0.80;;
4694;SDS011;2361;49.540;8.390;2023-03-23T14:14:47;0.90;;;0.90;;
4694;SDS011;2361;49.540;8.390;2023-03-23T14:17:24;0.70;;;0.70;;
4694;SDS011;2361;49.540;8.390;2023-03-23T14:19:53;0.80;;;0.80;;
4694;SDS011;2361;49.540;8.390;2023-03-23T14:22:26;2.00;;;0.73;;
4694;SDS011;2361;49.540;8.390;2023-03-23T14:25:02;1.37;;;0.80;;
4694;SDS011;2361;49.540;8.390;2023-03-23T14:27:40;0.93;;;0.93;;
4694;SDS011;2361;49.540;8.390;2023-03-23T14:30:08;2.10;;;1.07;;
4694;SDS011;2361;49.540;8.390;2023-03-23T14:32:40;1.00;;;0.90;;
4694;SDS011;2361;49.540;8.390;2023-03-23T14:35:08;1.03;;;1.00;;
4694;SDS011;2361;49.540;8.390;2023-03-23T14:37:53;1.10;;;1.10;;
4694;SDS011;2361;49.540;8.390;2023-03-23T14:40:21;1.00;;;1.00;;
4694;SDS011;2361;49.540;8.390;2023-03-23T14:42:47;0.80;;;0.80;;
4694;SDS011;2361;49.540;8.390;2023-03-23T14:45:19;0.80;;;0.80;;
4694;SDS011;2361;49.540;8.390;2023-03-23T14:47:47;0.87;;;0.70;;
4694;SDS011;2361;49.540;8.390;2023-03-23T14:50:27;0.80;;;0.80;;
4694;SDS011;2361;49.540;8.390;2023-03-23T14:53:11;2.40;;;0.90;;
4694;SDS011;2361;49.540;8.390;2023-03-23T14:55:46;0.70;;;0.70;;
4694;SDS011;2361;49.540;8.390;2023-03-23T14:58:15;0.70;;;0.70;;
4694;SDS011;2361;49.540;8.390;2023-03-23T15:00:53;0.80;;;0.70;;
4694;SDS011;2361;49.540;8.390;2023-03-23T15:03:28;0.87;;;0.87;;
4694;SDS011;2361;49.540;8.390;2023-03-23T15:06:37;1.10;;;1.00;;
4694;SDS011;2361;49.540;8.390;2023-03-23T15:09:10;0.90;;;0.90;;
4694;SDS011;2361;49.540;8.390;2023-03-23T15:11:40;0.80;;;0.80;;
4694;SDS011;2361;49.540;8.390;2023-03-23T15:14:13;0.70;;;0.70;;
4694;SDS011;2361;49.540;8.390;2023-03-23T15:16:52;0.90;;;0.90;;
4694;SDS011;2361;49.540;8.390;2023-03-23T15:19:32;1.03;;;0.90;;
4694;SDS011;2361;49.540;8.390;2023-03-23T15:25:30;0.60;;;0.53;;
4694;SDS011;2361;49.540;8.390;2023-03-23T15:27:54;0.80;;;0.80;;
4694;SDS011;2361;49.540;8.390;2023-03-23T15:32:55;1.17;;;0.90;;
4694;SDS011;2361;49.540;8.390;2023-03-23T15:35:51;1.03;;;0.93;;
4694;SDS011;2361;49.540;8.390;2023-03-23T15:38:26;1.00;;;1.00;;
4694;SDS011;2361;49.540;8.390;2023-03-23T15:40:58;0.60;;;0.60;;
4694;SDS011;2361;49.540;8.390;2023-03-23T15:48:33;1.67;;;1.10;;
4694;SDS011;2361;49.540;8.390;2023-03-23T15:51:24;1.03;;;0.90;;
4694;SDS011;2361;49.540;8.390;2023-03-23T15:53:54;0.60;;;0.60;;
4694;SDS011;2361;49.540;8.390;2023-03-23T15:56:21;1.00;;;1.00;;
4694;SDS011;2361;49.540;8.390;2023-03-23T15:58:48;1.20;;;1.20;;
4694;SDS011;2361;49.540;8.390;2023-03-23T16:01:22;0.87;;;0.87;;
4694;SDS011;2361;49.540;8.390;2023-03-23T16:03:55;0.90;;;0.90;;
4694;SDS011;2361;49.540;8.390;2023-03-23T16:06:39;0.80;;;0.80;;
4694;SDS011;2361;49.540;8.390;2023-03-23T16:09:10;1.00;;;1.00;;
4694;SDS011;2361;49.540;8.390;2023-03-23T16:11:44;1.10;;;1.10;;
4694;SDS011;2361;49.540;8.390;2023-03-23T16:14:11;1.50;;;1.40;;
4694;SDS011;2361;49.540;8.390;2023-03-23T16:16:45;1.63;;;1.53;;
4694;SDS011;2361;49.540;8.390;2023-03-23T16:19:16;0.87;;;0.87;;
4694;SDS011;2361;49.540;8.390;2023-03-23T16:21:45;1.30;;;1.17;;
4694;SDS011;2361;49.540;8.390;2023-03-23T16:24:12;1.20;;;0.93;;
4694;SDS011;2361;49.540;8.390;2023-03-23T16:26:39;0.77;;;0.77;;
4694;SDS011;2361;49.540;8.390;2023-03-23T16:29:13;1.43;;;1.40;;
4694;SDS011;2361;49.540;8.390;2023-03-23T16:31:59;1.20;;;1.20;;
4694;SDS011;2361;49.540;8.390;2023-03-23T16:34:26;1.10;;;1.10;;
4694;SDS011;2361;49.540;8.390;2023-03-23T16:36:55;1.43;;;1.40;;
4694;SDS011;2361;49.540;8.390;2023-03-23T16:39:22;1.33;;;1.27;;
4694;SDS011;2361;49.540;8.390;2023-03-23T16:41:49;1.47;;;1.30;;
4694;SDS011;2361;49.540;8.390;2023-03-23T16:44:16;1.40;;;1.30;;
4694;SDS011;2361;49.540;8.390;2023-03-23T16:46:43;1.30;;;1.30;;
4694;SDS011;2361;49.540;8.390;2023-03-23T16:49:10;1.57;;;1.47;;
4694;SDS011;2361;49.540;8.390;2023-03-23T16:51:37;1.33;;;1.23;;
4694;SDS011;2361;49.540;8.390;2023-03-23T16:54:04;1.50;;;1.50;;
4694;SDS011;2361;49.540;8.390;2023-03-23T16:56:35;1.83;;;1.60;;
4694;SDS011;2361;49.540;8.390;2023-03-23T16:59:02;2.10;;;2.00;;
4694;SDS011;2361;49.540;8.390;2023-03-23T17:01:29;1.73;;;1.63;;
4694;SDS011;2361;49.540;8.390;2023-03-23T17:03:56;2.30;;;1.43;;
4694;SDS011;2361;49.540;8.390;2023-03-23T17:06:23;1.23;;;1.20;;
4694;SDS011;2361;49.540;8.390;2023-03-23T17:08:50;1.10;;;1.10;;
4694;SDS011;2361;49.540;8.390;2023-03-23T17:11:17;1.10;;;1.10;;
4694;SDS011;2361;49.540;8.390;2023-03-23T17:13:44;1.17;;;1.17;;
4694;SDS011;2361;49.540;8.390;2023-03-23T17:16:11;3.23;;;2.23;;
4694;SDS011;2361;49.540;8.390;2023-03-23T17:18:38;3.07;;;2.30;;
4694;SDS011;2361;49.540;8.390;2023-03-23T17:21:05;2.60;;;2.23;;
4694;SDS011;2361;49.540;8.390;2023-03-23T17:23:32;1.87;;;1.70;;
4694;SDS011;2361;49.540;8.390;2023-03-23T17:25:59;1.73;;;1.60;;
4694;SDS011;2361;49.540;8.390;2023-03-23T17:28:26;1.17;;;1.17;;
4694;SDS011;2361;49.540;8.390;2023-03-23T17:30:54;2.47;;;2.07;;
4694;SDS011;2361;49.540;8.390;2023-03-23T17:33:21;1.80;;;1.70;;
4694;SDS011;2361;49.540;8.390;2023-03-23T17:35:48;2.70;;;1.40;;
4694;SDS011;2361;49.540;8.390;2023-03-23T17:38:17;5.77;;;1.47;;
4694;SDS011;2361;49.540;8.390;2023-03-23T17:40:44;2.10;;;1.60;;
4694;SDS011;2361;49.540;8.390;2023-03-23T17:43:11;1.53;;;1.43;;
4694;SDS011;2361;49.540;8.390;2023-03-23T17:45:38;1.63;;;1.53;;
4694;SDS011;2361;49.540;8.390;2023-03-23T17:48:06;1.13;;;1.13;;
4694;SDS011;2361;49.540;8.390;2023-03-23T17:50:33;1.37;;;1.27;;
4694;SDS011;2361;49.540;8.390;2023-03-23T17:53:01;2.00;;;1.90;;
4694;SDS011;2361;49.540;8.390;2023-03-23T17:55:28;2.20;;;2.10;;
4694;SDS011;2361;49.540;8.390;2023-03-23T17:57:58;1.87;;;1.77;;
4694;SDS011;2361;49.540;8.390;2023-03-23T18:00:25;1.27;;;1.23;;